Time;durP1;ratioP1;P1;durP2;ratioP2;P2;SDS_P1;SDS_P2;PMS_P1;PMS_P2;Temp;Humidity;BMP_temperature;BMP_pressure;BME280_temperature;BME280_humidity;BME280_pressure;Samples;Min_cycle;Max_cycle;Signal;HPM_P1;HPM_P2
2022/04/15 00:01:15;;;;;;;9.10;6.73;;;;;;;12.63;42.73;94988.81;5068946;28;20194;-79
2022/04/15 00:03:40;;;;;;;9.27;6.60;;;;;;;12.64;42.46;94990.44;5048244;28;20197;-78
2022/04/15 00:06:08;;;;;;;8.00;7.33;;;;;;;12.47;43.30;94994.44;5058737;28;20191;-79
2022/04/15 00:08:35;;;;;;;7.33;6.17;;;;;;;12.41;42.49;94992.59;5062861;28;20193;-79
2022/04/15 00:11:01;;;;;;;6.00;5.50;;;;;;;12.48;42.06;94990.78;5086852;28;20417;-78
2022/04/15 00:13:31;;;;;;;9.97;5.53;;;;;;;12.45;42.36;94986.75;5055098;28;20908;-79
2022/04/15 00:15:57;;;;;;;7.40;5.60;;;;;;;12.57;42.25;95000.09;5049133;28;20419;-78
2022/04/15 00:18:24;;;;;;;6.73;6.03;;;;;;;12.56;42.26;95001.13;5063032;28;20436;-78
2022/04/15 00:20:51;;;;;;;9.20;6.30;;;;;;;12.62;42.58;94991.66;5061606;28;20428;-78
2022/04/15 00:23:18;;;;;;;7.73;6.93;;;;;;;12.63;42.94;94994.06;5088563;28;20419;-78
2022/04/15 00:25:44;;;;;;;9.73;8.07;;;;;;;12.59;42.79;94992.84;5057846;28;20506;-79
2022/04/15 00:28:12;;;;;;;8.60;7.63;;;;;;;12.49;42.41;94997.66;5059006;28;20462;-78
2022/04/15 00:30:38;;;;;;;9.73;8.73;;;;;;;12.56;42.37;94998.50;5064953;28;20425;-79
2022/04/15 00:33:03;;;;;;;11.57;9.13;;;;;;;12.54;42.31;94994.44;5055782;28;20505;-78
2022/04/15 00:35:29;;;;;;;10.23;7.90;;;;;;;12.61;42.51;94993.44;5054973;28;20186;-78
2022/04/15 00:37:54;;;;;;;12.03;8.20;;;;;;;12.80;41.70;94988.44;5080286;28;20206;-79
2022/04/15 00:40:20;;;;;;;11.17;8.20;;;;;;;12.57;42.00;94997.47;5050999;28;20183;-78
2022/04/15 00:42:46;;;;;;;8.73;7.83;;;;;;;12.41;42.55;94995.22;5056538;28;20178;-79
2022/04/15 00:45:11;;;;;;;9.30;8.10;;;;;;;12.33;42.90;94995.38;5060779;28;20191;-78
2022/04/15 00:47:51;;;;;;;9.23;6.33;;;;;;;12.19;43.27;94992.69;5090016;28;20171;-78
2022/04/15 00:50:18;;;;;;;7.00;6.30;;;;;;;12.25;43.65;94989.28;5061989;28;20179;-79
2022/04/15 00:52:46;;;;;;;8.97;6.23;;;;;;;12.29;43.01;94992.34;5060266;28;20417;-79
2022/04/15 00:55:12;;;;;;;10.43;5.70;;;;;;;12.55;41.69;94989.00;5061320;28;20495;-78
2022/04/15 00:57:43;;;;;;;6.50;5.90;;;;;;;12.40;42.51;94994.38;5058551;28;20526;-79
2022/04/15 01:00:12;;;;;;;8.90;5.77;;;;;;;12.15;43.15;94995.91;5056254;28;20456;-78
2022/04/15 01:02:38;;;;;;;6.37;5.77;;;;;;;12.31;42.96;94992.94;5056389;28;20440;-79
2022/04/15 01:05:08;;;;;;;6.40;5.87;;;;;;;12.30;43.14;94994.75;5051875;28;20430;-78
2022/04/15 01:07:39;;;;;;;10.27;5.77;;;;;;;12.30;42.94;94994.75;5054128;28;20425;-79
2022/04/15 01:10:07;;;;;;;11.10;5.87;;;;;;;12.18;43.53;94990.25;5054277;28;20436;-78
2022/04/15 01:12:36;;;;;;;12.93;7.50;;;;;;;12.36;42.99;94995.00;5057031;28;20419;-78
2022/04/15 01:15:05;;;;;;;8.10;6.37;;;;;;;11.96;43.86;94997.44;5051792;28;20430;-78
2022/04/15 01:17:33;;;;;;;11.33;5.50;;;;;;;11.83;44.44;95001.56;5060722;28;20840;-79
2022/04/15 01:19:59;;;;;;;8.13;5.97;;;;;;;12.13;43.66;94988.25;5047261;28;20445;-79
2022/04/15 01:22:31;;;;;;;7.50;5.87;;;;;;;11.87;43.69;94994.94;5067311;28;20421;-78
2022/04/15 01:24:56;;;;;;;7.53;5.57;;;;;;;11.80;43.91;94991.47;5054902;28;20442;-79
2022/04/15 01:27:27;;;;;;;8.40;6.87;;;;;;;11.98;43.68;94995.44;5060025;28;20499;-78
2022/04/15 01:29:52;;;;;;;7.33;4.87;;;;;;;11.85;43.28;94996.13;5062570;28;20179;-79
2022/04/15 01:32:18;;;;;;;5.33;4.83;;;;;;;11.67;43.92;94994.03;5059318;28;21117;-78
2022/04/15 01:34:43;;;;;;;6.03;5.50;;;;;;;11.64;44.03;94984.72;5058369;28;20221;-78
2022/04/15 01:37:11;;;;;;;5.73;5.00;;;;;;;11.77;43.76;94978.75;5061177;28;20572;-78
2022/04/15 01:39:38;;;;;;;6.33;5.70;;;;;;;11.84;44.23;94978.78;5047377;28;20235;-78
2022/04/15 01:42:04;;;;;;;9.73;5.00;;;;;;;11.88;43.84;94978.19;5060919;28;20428;-78
2022/04/15 01:44:29;;;;;;;6.40;4.83;;;;;;;11.84;43.60;94974.34;5051848;28;20433;-78
2022/04/15 01:46:55;;;;;;;6.40;5.80;;;;;;;11.65;44.11;94970.63;5053743;28;20209;-78
2022/04/15 01:49:20;;;;;;;3.63;3.33;;;;;;;11.71;44.26;94964.59;5046786;28;20179;-79
2022/04/15 01:51:45;;;;;;;4.93;4.63;;;;;;;11.80;44.27;94962.63;5063225;28;20642;-77
2022/04/15 01:54:11;;;;;;;6.57;4.80;;;;;;;12.06;43.53;94963.78;5062035;28;20234;-78
2022/04/15 01:56:37;;;;;;;6.40;5.40;;;;;;;11.91;43.85;94972.63;5061726;28;20217;-78
2022/04/15 01:59:04;;;;;;;4.90;4.43;;;;;;;11.71;44.63;94966.41;5052950;28;20187;-78
2022/04/15 02:01:30;;;;;;;5.57;4.43;;;;;;;11.73;44.30;94977.53;5058596;28;20167;-79
2022/04/15 02:03:55;;;;;;;5.47;4.70;;;;;;;11.88;43.98;94966.91;5061769;28;20429;-78
2022/04/15 02:06:21;;;;;;;6.93;4.80;;;;;;;11.88;43.55;94970.34;5055302;28;20206;-78
2022/04/15 02:08:46;;;;;;;5.40;4.90;;;;;;;11.90;43.44;94957.06;5057962;28;20249;-78
2022/04/15 02:11:11;;;;;;;6.40;4.93;;;;;;;11.78;43.60;94962.03;5055176;28;20191;-79
2022/04/15 02:13:37;;;;;;;5.10;4.47;;;;;;;11.64;44.37;94960.31;5065223;28;20178;-78
2022/04/15 02:16:03;;;;;;;7.77;5.17;;;;;;;12.09;43.80;94952.91;5066139;28;20174;-78
2022/04/15 02:18:28;;;;;;;8.23;5.23;;;;;;;12.03;43.55;94958.94;5064903;28;20274;-78
2022/04/15 02:20:54;;;;;;;11.50;5.67;;;;;;;11.99;43.20;94958.53;5054096;28;20239;-79
2022/04/15 02:23:19;;;;;;;5.43;4.90;;;;;;;11.83;44.11;94957.00;5049063;28;20175;-79
2022/04/15 02:25:45;;;;;;;6.80;4.30;;;;;;;11.83;44.35;94945.69;5046100;28;20243;-78
2022/04/15 02:28:11;;;;;;;6.30;5.53;;;;;;;12.02;43.79;94960.75;5092734;28;20242;-78
2022/04/15 02:30:39;;;;;;;7.83;5.47;;;;;;;12.02;44.19;94957.31;5059827;28;20186;-78
2022/04/15 02:33:04;;;;;;;6.53;5.87;;;;;;;11.83;44.51;94962.22;5055822;28;20181;-78
2022/04/15 02:35:30;;;;;;;6.23;5.60;;;;;;;11.84;44.91;94958.63;5066022;28;20519;-79
2022/04/15 02:37:55;;;;;;;5.93;5.43;;;;;;;11.77;44.96;94962.22;5061135;28;20621;-79
2022/04/15 02:40:21;;;;;;;7.00;6.10;;;;;;;11.58;45.14;94964.53;5052131;28;20197;-78
2022/04/15 02:42:46;;;;;;;9.00;5.63;;;;;;;11.73;45.21;94961.78;5065080;28;20175;-79
2022/04/15 02:45:12;;;;;;;7.73;5.70;;;;;;;11.77;44.87;94963.00;5051646;28;20257;-79
2022/04/15 02:47:40;;;;;;;10.43;5.47;;;;;;;11.85;44.65;94962.84;5052821;28;20177;-78
2022/04/15 02:50:06;;;;;;;5.47;4.97;;;;;;;11.87;45.01;94960.84;5053732;28;20414;-79
2022/04/15 02:52:34;;;;;;;7.27;5.10;;;;;;;11.91;44.24;94967.38;5057698;28;20501;-79
2022/04/15 02:54:59;;;;;;;5.67;5.10;;;;;;;11.93;44.18;94959.28;5055418;28;20428;-78
2022/04/15 02:57:24;;;;;;;6.80;5.07;;;;;;;12.14;44.27;94966.25;5055826;28;20461;-79
2022/04/15 02:59:50;;;;;;;6.80;5.10;;;;;;;11.52;45.77;94973.16;5077678;28;20191;-78
2022/04/15 03:02:15;;;;;;;7.50;4.73;;;;;;;11.76;45.55;94971.91;5046426;28;20235;-79
2022/04/15 03:04:41;;;;;;;6.87;5.20;;;;;;;12.29;43.86;94966.91;5046447;28;20191;-79
2022/04/15 03:07:06;;;;;;;6.23;4.97;;;;;;;11.89;44.87;94976.38;5053304;28;20167;-79
2022/04/15 03:09:32;;;;;;;7.60;5.80;;;;;;;11.97;44.43;94967.56;5063733;28;20190;-78
2022/04/15 03:11:57;;;;;;;7.47;6.60;;;;;;;11.70;45.52;94964.78;5050149;28;20246;-78
2022/04/15 03:14:23;;;;;;;8.50;5.80;;;;;;;11.69;45.56;94963.19;5064026;28;20179;-78
2022/04/15 03:16:48;;;;;;;9.37;6.57;;;;;;;11.25;46.84;94964.28;5046086;28;20289;-78
2022/04/15 03:19:14;;;;;;;7.97;6.40;;;;;;;11.27;46.41;94964.94;5056582;28;20175;-78
2022/04/15 03:21:40;;;;;;;7.03;5.20;;;;;;;11.31;46.53;94964.34;5058293;28;20171;-79
2022/04/15 03:24:05;;;;;;;4.83;4.33;;;;;;;11.35;46.14;94964.78;5049364;28;20190;-78
2022/04/15 03:26:31;;;;;;;5.93;4.80;;;;;;;11.42;46.17;94963.00;5059881;28;20175;-78
2022/04/15 03:28:56;;;;;;;9.57;6.30;;;;;;;11.46;46.53;94966.88;5045671;28;20272;-78
2022/04/15 03:31:22;;;;;;;7.00;5.23;;;;;;;11.60;45.34;94973.00;5062970;28;20541;-78
2022/04/15 03:33:48;;;;;;;10.50;5.90;;;;;;;11.47;45.62;94973.72;5065196;28;20285;-79
2022/04/15 03:36:14;;;;;;;5.80;5.20;;;;;;;11.49;45.94;94976.94;5065280;28;20182;-78
2022/04/15 03:38:40;;;;;;;5.50;5.00;;;;;;;11.33;46.11;94974.63;5066217;28;20167;-79
2022/04/15 03:41:07;;;;;;;5.63;5.17;;;;;;;11.33;46.06;94977.25;5060021;28;20416;-79
2022/04/15 03:43:32;;;;;;;6.67;5.40;;;;;;;11.19;46.26;94973.72;5059919;28;20746;-78
2022/04/15 03:45:59;;;;;;;6.60;5.43;;;;;;;11.40;46.28;94978.13;5083701;28;20444;-79
2022/04/15 03:48:25;;;;;;;6.93;6.33;;;;;;;11.57;46.19;94977.81;5052865;28;20449;-79
2022/04/15 03:50:52;;;;;;;7.60;5.23;;;;;;;11.35;46.19;94980.50;5048181;28;20406;-79
2022/04/15 03:53:18;;;;;;;5.77;5.27;;;;;;;11.34;46.07;94978.88;5061265;28;20406;-78
2022/04/15 03:55:47;;;;;;;9.77;5.43;;;;;;;11.52;46.45;94983.63;5062388;28;20433;-78
2022/04/15 03:58:15;;;;;;;10.60;5.10;;;;;;;11.63;45.70;94980.50;5066473;28;20190;-78
2022/04/15 04:00:41;;;;;;;7.90;6.90;;;;;;;11.59;45.66;94986.28;5064357;28;20438;-78
2022/04/15 04:03:07;;;;;;;7.73;4.93;;;;;;;11.49;46.06;94982.19;5065141;28;20443;-79
2022/04/15 04:05:33;;;;;;;6.30;5.70;;;;;;;11.61;45.68;94981.66;5050016;28;20926;-77
2022/04/15 04:07:58;;;;;;;10.50;6.50;;;;;;;11.40;46.43;94985.97;5065342;28;20185;-78
2022/04/15 04:10:24;;;;;;;10.63;6.20;;;;;;;11.36;46.63;94982.09;5052556;28;20183;-78
2022/04/15 04:12:51;;;;;;;11.30;7.27;;;;;;;11.89;45.65;94986.88;5062489;28;20645;-78
2022/04/15 04:15:17;;;;;;;8.57;7.33;;;;;;;11.56;45.94;94990.13;5059803;28;20626;-78
2022/04/15 04:17:43;;;;;;;10.30;7.40;;;;;;;11.58;45.94;94984.69;5057620;28;20477;-78
2022/04/15 04:20:12;;;;;;;11.77;7.00;;;;;;;11.58;46.42;94989.94;5054729;28;20434;-79
2022/04/15 04:22:38;;;;;;;11.83;7.97;;;;;;;11.24;47.64;94991.50;5049810;28;20426;-78
2022/04/15 04:25:08;;;;;;;8.13;6.53;;;;;;;11.23;47.07;94997.72;5097916;28;20488;-79
2022/04/15 04:27:38;;;;;;;8.53;6.93;;;;;;;11.41;47.49;94994.66;5056064;28;20479;-79
2022/04/15 04:30:06;;;;;;;9.80;7.83;;;;;;;11.49;46.56;94992.69;5061077;28;20446;-78
2022/04/15 04:32:32;;;;;;;18.30;7.10;;;;;;;11.52;46.52;94991.50;5049222;28;20505;-78
2022/04/15 04:34:57;;;;;;;14.13;8.00;;;;;;;11.60;46.46;94991.34;5061558;28;20430;-78
2022/04/15 04:37:23;;;;;;;9.53;7.37;;;;;;;11.74;46.07;95000.09;5059763;28;20222;-78
2022/04/15 04:39:49;;;;;;;9.80;7.40;;;;;;;11.87;46.16;95000.16;5051068;28;20241;-78
2022/04/15 04:42:14;;;;;;;13.00;8.30;;;;;;;11.88;45.84;95001.00;5062451;28;20185;-78
2022/04/15 04:44:41;;;;;;;15.63;8.80;;;;;;;11.87;46.10;95004.63;5068179;28;20250;-77
2022/04/15 04:47:09;;;;;;;12.63;8.30;;;;;;;12.03;45.81;95003.53;5067966;28;20425;-78
2022/04/15 04:49:35;;;;;;;9.03;8.10;;;;;;;12.04;45.75;94999.91;5054701;28;20445;-78
2022/04/15 04:52:01;;;;;;;11.93;8.57;;;;;;;12.17;45.22;95004.41;5063733;28;20433;-78
2022/04/15 04:54:26;;;;;;;11.40;9.77;;;;;;;12.24;44.99;95006.06;5064908;28;20433;-78
2022/04/15 04:56:52;;;;;;;14.93;9.70;;;;;;;12.34;44.93;95005.69;5056150;28;20453;-79
2022/04/15 04:59:17;;;;;;;11.70;9.27;;;;;;;12.39;44.31;95012.97;5056662;28;20176;-78
2022/04/15 05:01:43;;;;;;;15.07;9.90;;;;;;;12.46;44.50;95013.78;5053805;28;20187;-78
2022/04/15 05:04:35;;;;;;;18.53;10.90;;;;;;;12.59;44.65;95003.34;5052877;28;20248;-78
2022/04/15 05:07:51;;;;;;;;;;;;;;;;;;;;;
2022/04/15 05:10:44;;;;;;;16.00;9.97;;;;;;;13.03;43.76;95007.28;5039608;28;20458;-77
2022/04/15 05:13:09;;;;;;;15.03;10.17;;;;;;;12.80;44.41;95012.88;5068521;28;20528;-78
2022/04/15 05:15:34;;;;;;;15.37;10.73;;;;;;;12.81;44.27;95016.34;5054509;28;20424;-78
2022/04/15 05:18:00;;;;;;;17.87;12.67;;;;;;;12.99;44.32;95016.56;5065341;28;20214;-78
2022/04/15 05:20:55;;;;;;;24.57;11.53;;;;;;;13.21;44.76;95019.03;5055003;28;20191;-78
2022/04/15 05:24:12;;;;;;;20.13;12.67;;;;;;;13.08;44.26;95019.81;5056439;28;20183;-78
2022/04/15 05:26:47;;;;;;;24.13;12.63;;;;;;;13.45;44.03;95017.66;5061052;28;20442;-78
2022/04/15 05:29:47;;;;;;;17.60;12.97;;;;;;;13.38;43.19;95017.63;5056243;28;20472;-78
2022/04/15 05:32:13;;;;;;;19.20;13.33;;;;;;;13.43;43.55;95020.47;5052915;28;20520;-78
2022/04/15 05:34:39;;;;;;;22.07;12.90;;;;;;;13.70;42.20;95015.19;5050775;28;20429;-78
2022/04/15 05:37:07;;;;;;;17.00;12.47;;;;;;;13.99;41.73;95015.75;5086464;28;20877;-79
2022/04/15 05:39:33;;;;;;;18.33;12.87;;;;;;;13.94;42.35;95016.34;5060577;28;20209;-79
2022/04/15 05:41:58;;;;;;;14.60;12.77;;;;;;;14.06;41.53;95013.91;5053504;28;20545;-78
2022/04/15 05:44:24;;;;;;;16.40;12.80;;;;;;;14.32;41.18;95017.47;5058670;28;20202;-79
2022/04/15 05:46:49;;;;;;;21.73;13.83;;;;;;;14.17;41.86;95010.66;5049068;28;20240;-79
2022/04/15 05:49:21;;;;;;;15.23;13.30;;;;;;;14.51;40.63;95007.88;5053438;28;20638;-78
2022/04/15 05:51:50;;;;;;;25.60;16.17;;;;;;;14.47;40.96;95007.47;5055479;28;20186;-78
2022/04/15 05:54:16;;;;;;;23.30;14.60;;;;;;;14.48;40.55;95013.59;5050558;28;20433;-79
2022/04/15 05:56:42;;;;;;;35.80;16.67;;;;;;;14.55;40.70;95006.44;5048173;28;20454;-78
2022/04/15 05:59:07;;;;;;;38.93;16.87;;;;;;;14.91;40.59;95005.06;5059636;28;20193;-78
2022/04/15 06:01:33;;;;;;;19.50;15.90;;;;;;;14.56;41.09;95008.06;5072660;28;20285;-78
2022/04/15 06:03:59;;;;;;;20.63;15.13;;;;;;;14.92;40.07;95002.22;5066661;28;20178;-78
2022/04/15 06:06:25;;;;;;;24.97;16.50;;;;;;;15.02;39.65;95002.56;5056073;28;20537;-78
2022/04/15 06:08:54;;;;;;;21.43;15.00;;;;;;;15.24;38.89;95002.22;5061656;28;20197;-77
2022/04/15 06:11:20;;;;;;;28.40;17.27;;;;;;;15.11;39.49;95002.31;5092217;28;20249;-76
2022/04/15 06:13:50;;;;;;;27.80;16.77;;;;;;;14.66;39.79;95005.00;5050349;28;20440;-77
2022/04/15 06:16:32;;;;;;;30.23;17.53;;;;;;;15.19;39.49;94999.41;5054331;28;20418;-77
2022/04/15 06:19:01;;;;;;;23.30;17.70;;;;;;;15.20;38.80;95004.47;5065002;28;20498;-78
2022/04/15 06:21:26;;;;;;;22.33;17.70;;;;;;;15.37;38.77;95007.38;5058199;28;20413;-77
2022/04/15 06:23:53;;;;;;;22.63;18.13;;;;;;;15.35;37.89;95000.72;5064306;28;20439;-77
2022/04/15 06:26:37;;;;;;;25.50;17.67;;;;;;;15.19;38.02;95002.03;5065799;28;20232;-78
2022/04/15 06:29:04;;;;;;;22.63;18.30;;;;;;;15.28;38.88;95000.75;5058191;28;20473;-77
2022/04/15 06:31:33;;;;;;;19.93;16.80;;;;;;;15.74;37.49;95009.34;5054312;28;20445;-78
2022/04/15 06:33:58;;;;;;;19.60;17.60;;;;;;;16.20;36.75;94997.47;5064723;28;20488;-77
2022/04/15 06:36:24;;;;;;;31.53;19.03;;;;;;;16.30;36.77;95002.28;5055263;28;20835;-78
2022/04/15 06:38:49;;;;;;;21.80;17.43;;;;;;;16.56;36.15;94990.56;5061434;28;20174;-79
2022/04/15 06:41:15;;;;;;;23.57;17.23;;;;;;;16.00;37.12;94987.16;5048833;28;20191;-77
2022/04/15 06:43:41;;;;;;;24.40;17.13;;;;;;;15.63;37.50;94987.06;5051604;28;20178;-77
2022/04/15 06:46:06;;;;;;;26.30;18.97;;;;;;;16.17;36.54;94988.19;5066138;28;20174;-77
2022/04/15 06:48:32;;;;;;;25.37;17.30;;;;;;;16.75;35.32;94986.88;5065607;28;20284;-77
2022/04/15 06:50:57;;;;;;;30.73;19.87;;;;;;;16.14;35.90;94990.44;5053889;28;20277;-77
2022/04/15 06:53:23;;;;;;;28.73;20.73;;;;;;;16.49;35.78;94989.84;5064097;28;20191;-77
2022/04/15 06:55:53;;;;;;;26.47;19.47;;;;;;;16.49;35.64;94985.38;5058333;28;20195;-78
2022/04/15 06:58:19;;;;;;;24.17;18.40;;;;;;;16.27;36.21;94997.44;5055883;28;20452;-77
2022/04/15 07:00:46;;;;;;;33.37;18.20;;;;;;;16.91;35.34;94992.59;5064272;28;20495;-78
2022/04/15 07:03:12;;;;;;;19.00;16.70;;;;;;;17.24;34.19;94989.44;5061584;28;20429;-77
2022/04/15 07:05:39;;;;;;;19.30;16.93;;;;;;;17.47;34.23;94993.16;5065775;28;20425;-77
2022/04/15 07:08:08;;;;;;;20.07;17.37;;;;;;;17.46;34.12;94989.72;5064495;28;20405;-78
2022/04/15 07:10:34;;;;;;;20.13;16.73;;;;;;;17.86;33.08;94981.09;5063975;28;20436;-77
2022/04/15 07:13:00;;;;;;;21.17;17.40;;;;;;;17.95;32.92;94984.22;5056235;28;20516;-77
2022/04/15 07:15:25;;;;;;;26.53;17.07;;;;;;;17.72;33.06;94988.47;5061748;28;20243;-78
2022/04/15 07:17:51;;;;;;;21.37;17.27;;;;;;;17.35;32.87;94978.06;5053120;28;20698;-78
2022/04/15 07:20:17;;;;;;;26.33;17.30;;;;;;;17.30;33.30;94982.44;5060343;28;20188;-77
2022/04/15 07:23:01;;;;;;;21.23;18.80;;;;;;;17.35;33.49;94978.06;5062439;28;20183;-77
2022/04/15 07:25:26;;;;;;;18.27;16.30;;;;;;;18.05;32.32;94976.47;5063688;28;20499;-77
2022/04/15 07:28:12;;;;;;;26.73;18.50;;;;;;;17.91;32.23;94970.63;5065777;28;20413;-78
2022/04/15 07:30:38;;;;;;;19.40;17.07;;;;;;;17.79;32.52;94976.94;5064845;28;20218;-78
2022/04/15 07:33:04;;;;;;;26.60;16.43;;;;;;;18.27;32.17;94976.69;5064882;28;20413;-79
2022/04/15 07:35:30;;;;;;;22.47;17.00;;;;;;;18.52;31.51;94970.28;5063936;28;20193;-78
2022/04/15 07:37:55;;;;;;;17.67;14.10;;;;;;;18.92;30.85;94967.59;5066035;28;20444;-78
2022/04/15 07:40:27;;;;;;;20.30;15.60;;;;;;;19.35;29.92;94970.72;5067263;28;20243;-77
2022/04/15 07:42:53;;;;;;;17.03;14.50;;;;;;;18.59;30.94;94965.66;5066558;28;20167;-78
2022/04/15 07:45:18;;;;;;;21.33;14.50;;;;;;;19.45;29.96;94970.88;5066671;28;20429;-78
2022/04/15 07:47:44;;;;;;;16.23;13.23;;;;;;;19.72;28.98;94966.75;5066016;28;20179;-78
2022/04/15 07:50:10;;;;;;;15.60;12.90;;;;;;;19.40;29.39;94965.47;5066432;28;20662;-78
2022/04/15 07:52:36;;;;;;;14.63;12.70;;;;;;;18.89;29.03;94959.31;5065808;28;20425;-77
2022/04/15 07:55:02;;;;;;;14.50;13.07;;;;;;;18.92;29.44;94970.25;5065214;28;20182;-78
2022/04/15 07:57:30;;;;;;;14.63;12.53;;;;;;;19.71;27.85;94971.25;5065326;28;20233;-78
2022/04/15 07:59:56;;;;;;;21.83;12.83;;;;;;;19.95;27.81;94961.25;5064923;28;20540;-78
2022/04/15 08:02:25;;;;;;;12.40;11.13;;;;;;;20.18;27.15;94968.19;5067739;28;20416;-77
2022/04/15 08:04:51;;;;;;;14.63;10.23;;;;;;;20.24;26.52;94959.25;5064438;28;20511;-78
2022/04/15 08:07:25;;;;;;;13.37;10.33;;;;;;;20.03;26.92;94960.84;5067481;28;20444;-77
2022/04/15 08:10:09;;;;;;;11.40;10.03;;;;;;;18.89;28.02;94954.00;5065281;28;20479;-77
2022/04/15 08:12:35;;;;;;;10.30;9.40;;;;;;;20.15;26.60;94947.44;5063206;28;20501;-78
2022/04/15 08:15:01;;;;;;;13.87;9.90;;;;;;;20.31;26.54;94944.97;5060286;28;20566;-78
2022/04/15 08:17:29;;;;;;;12.80;9.60;;;;;;;20.55;26.27;94943.66;5064795;28;20457;-78
2022/04/15 08:19:54;;;;;;;11.93;9.60;;;;;;;20.80;26.03;94947.66;5053706;28;20220;-77
2022/04/15 08:22:20;;;;;;;11.50;9.80;;;;;;;21.17;25.25;94945.09;5056602;28;20472;-77
2022/04/15 08:24:45;;;;;;;10.13;9.13;;;;;;;21.44;25.13;94938.94;5059110;28;20226;-78
2022/04/15 08:27:11;;;;;;;17.13;10.17;;;;;;;20.82;26.06;94949.00;5066331;28;20171;-78
2022/04/15 08:29:38;;;;;;;11.43;9.83;;;;;;;20.44;26.20;94942.72;5055094;28;20246;-78
2022/04/15 08:32:08;;;;;;;12.30;9.80;;;;;;;20.32;26.29;94949.22;5085135;28;20190;-78
2022/04/15 08:34:51;;;;;;;12.83;8.87;;;;;;;21.06;25.12;94943.41;5091869;28;20448;-78
2022/04/15 08:37:16;;;;;;;10.77;9.70;;;;;;;21.47;24.82;94932.28;5063021;28;20456;-78
2022/04/15 08:39:42;;;;;;;12.43;8.77;;;;;;;21.37;25.00;94928.47;5061509;28;20445;-78
2022/04/15 08:42:09;;;;;;;9.67;8.70;;;;;;;21.26;25.12;94921.44;5057567;28;20181;-79
2022/04/15 08:44:35;;;;;;;13.57;9.50;;;;;;;21.53;25.04;94926.75;5058476;28;20186;-79
2022/04/15 08:47:02;;;;;;;15.70;10.47;;;;;;;21.24;25.77;94921.69;5052973;28;20548;-79
2022/04/15 08:49:29;;;;;;;19.57;11.13;;;;;;;22.70;24.25;94917.69;5060839;28;20424;-78
2022/04/15 08:51:55;;;;;;;17.13;9.17;;;;;;;21.70;24.84;94920.44;5059829;28;20498;-78
2022/04/15 08:54:21;;;;;;;13.20;10.63;;;;;;;22.31;24.04;94918.13;5062300;28;20421;-76
2022/04/15 08:56:46;;;;;;;14.87;12.17;;;;;;;21.13;25.82;94908.56;5057202;28;20469;-76
2022/04/15 08:59:13;;;;;;;13.97;9.60;;;;;;;21.81;25.19;94908.78;5055334;28;20451;-77
2022/04/15 09:01:38;;;;;;;17.23;10.07;;;;;;;22.44;24.47;94902.69;5060324;28;20189;-76
2022/04/15 09:04:04;;;;;;;10.10;9.10;;;;;;;23.41;23.54;94899.34;5057957;28;20494;-78
2022/04/15 09:06:33;;;;;;;15.60;11.03;;;;;;;23.81;22.80;94889.66;5051424;28;20167;-76
2022/04/15 09:09:06;;;;;;;9.77;8.73;;;;;;;23.82;22.78;94892.06;5071465;28;20746;-77
2022/04/15 09:11:44;;;;;;;12.90;9.90;;;;;;;23.30;23.16;94882.53;5065951;28;20435;-77
2022/04/15 09:14:14;;;;;;;14.30;9.60;;;;;;;22.84;23.59;94875.31;5050233;28;20418;-77
2022/04/15 09:16:42;;;;;;;11.63;9.57;;;;;;;23.47;23.18;94871.56;5064770;28;20441;-78
2022/04/15 09:19:09;;;;;;;12.60;10.13;;;;;;;24.20;22.66;94863.06;5059452;28;20425;-77
2022/04/15 09:21:34;;;;;;;15.77;9.93;;;;;;;24.60;22.20;94866.63;5063269;28;20424;-77
2022/04/15 09:24:00;;;;;;;15.43;9.47;;;;;;;24.37;22.29;94857.38;5058618;28;20437;-77
2022/04/15 09:26:26;;;;;;;12.40;8.83;;;;;;;23.88;23.16;94858.91;5060901;28;20251;-77
2022/04/15 09:28:56;;;;;;;15.40;9.03;;;;;;;24.60;22.20;94861.28;5058896;28;20231;-77
2022/04/15 09:31:23;;;;;;;9.30;8.40;;;;;;;24.46;22.25;94849.56;5066429;28;20167;-77
2022/04/15 09:34:03;;;;;;;11.73;7.63;;;;;;;24.57;21.85;94848.47;5065445;28;20416;-77
2022/04/15 09:36:37;;;;;;;9.30;8.30;;;;;;;24.91;21.97;94840.44;5059737;28;20528;-77
2022/04/15 09:39:10;;;;;;;10.37;8.27;;;;;;;25.73;21.34;94844.28;5055826;28;20409;-77
2022/04/15 09:41:50;;;;;;;8.20;7.10;;;;;;;25.01;21.47;94834.22;5050736;28;20409;-77
2022/04/15 09:44:15;;;;;;;12.93;6.93;;;;;;;25.07;21.90;94833.09;5065287;28;20441;-77
2022/04/15 09:46:42;;;;;;;9.00;7.60;;;;;;;25.00;21.30;94835.28;5061264;28;20422;-79
2022/04/15 09:49:09;;;;;;;12.70;5.90;;;;;;;24.80;21.42;94822.06;5045902;28;20182;-77
2022/04/15 09:51:52;;;;;;;9.13;6.50;;;;;;;25.24;21.14;94823.88;5049621;28;20427;-77
2022/04/15 09:54:23;;;;;;;6.97;6.33;;;;;;;25.23;21.14;94822.25;5067607;28;20424;-76
2022/04/15 09:56:50;;;;;;;14.83;6.33;;;;;;;25.20;21.34;94815.56;5066621;28;20472;-76
2022/04/15 09:59:19;;;;;;;6.30;5.70;;;;;;;25.33;21.12;94803.41;5054884;28;20443;-76
2022/04/15 10:01:46;;;;;;;7.27;5.67;;;;;;;25.86;20.96;94806.03;5065815;28;20435;-76
2022/04/15 10:04:13;;;;;;;5.00;4.20;;;;;;;26.54;19.85;94790.69;5063546;28;20413;-75
2022/04/15 10:06:41;;;;;;;9.17;5.40;;;;;;;26.40;20.17;94781.75;5060748;28;20444;-76
2022/04/15 10:09:12;;;;;;;8.57;6.90;;;;;;;26.96;19.37;94782.78;5050578;28;20479;-76
2022/04/15 10:11:45;;;;;;;7.93;5.20;;;;;;;26.40;20.35;94776.38;5058328;28;20413;-76
2022/04/15 10:14:12;;;;;;;6.53;6.03;;;;;;;26.33;20.06;94776.72;5064613;28;20575;-76
2022/04/15 10:16:39;;;;;;;7.40;5.60;;;;;;;26.62;19.94;94773.13;5064196;28;20456;-76
2022/04/15 10:19:07;;;;;;;7.80;5.13;;;;;;;26.93;19.49;94773.41;5046174;28;20414;-76
2022/04/15 10:21:45;;;;;;;6.07;4.30;;;;;;;27.28;19.15;94773.94;5061819;28;20413;-76
2022/04/15 10:24:11;;;;;;;5.40;4.90;;;;;;;27.13;19.32;94760.72;5064753;28;20413;-76
2022/04/15 10:26:46;;;;;;;6.53;5.37;;;;;;;27.78;18.97;94760.59;5061071;28;20409;-76
2022/04/15 10:29:13;;;;;;;6.70;5.10;;;;;;;27.05;20.00;94764.88;5061645;28;20476;-76
2022/04/15 10:31:44;;;;;;;5.73;4.97;;;;;;;27.32;18.95;94757.97;5065091;28;20422;-76
2022/04/15 10:34:10;;;;;;;7.70;4.53;;;;;;;27.14;19.61;94756.94;5064364;28;20412;-76
2022/04/15 10:36:36;;;;;;;6.13;4.70;;;;;;;27.46;18.74;94742.66;5056715;28;20489;-76
2022/04/15 10:39:09;;;;;;;6.57;4.77;;;;;;;27.64;19.04;94746.34;5045964;28;20441;-77
2022/04/15 10:41:44;;;;;;;4.70;4.20;;;;;;;27.33;19.42;94744.25;5055706;28;20496;-76
2022/04/15 10:44:23;;;;;;;4.40;4.00;;;;;;;27.38;19.08;94736.09;5065027;28;20409;-76
2022/04/15 10:46:49;;;;;;;5.30;4.73;;;;;;;28.03;18.77;94736.97;5065767;28;21070;-75
2022/04/15 10:49:24;;;;;;;5.90;4.10;;;;;;;28.09;18.13;94727.66;5067385;28;20568;-75
2022/04/15 10:52:02;;;;;;;7.60;5.00;;;;;;;26.84;18.62;94727.66;5064169;28;20218;-76
2022/04/15 10:54:38;;;;;;;5.87;4.77;;;;;;;27.24;17.97;94721.81;5068913;28;20408;-76
2022/04/15 10:57:14;;;;;;;4.47;4.10;;;;;;;26.52;18.90;94725.72;5066875;28;20470;-75
2022/04/15 11:02:57;;;;;;;4.70;4.30;;;;;;;26.16;19.05;94718.25;5067537;28;20482;-76
2022/04/15 11:05:44;;;;;;;10.20;4.83;;;;;;;26.07;19.14;94722.66;5050994;28;20490;-76
2022/04/15 11:08:17;;;;;;;7.10;3.67;;;;;;;27.06;18.53;94718.13;5071648;28;20436;-76
2022/04/15 11:10:49;;;;;;;6.50;4.03;;;;;;;26.66;18.28;94721.22;5064259;28;20506;-76
2022/04/15 11:13:33;;;;;;;7.40;5.10;;;;;;;26.59;18.34;94710.06;5075622;28;20528;-76
2022/04/15 11:16:11;;;;;;;5.43;4.60;;;;;;;26.45;18.43;94711.91;5063819;28;20411;-76
2022/04/15 11:18:59;;;;;;;5.23;4.73;;;;;;;27.73;17.28;94696.13;5057434;28;20431;-76
2022/04/15 11:21:30;;;;;;;6.33;4.00;;;;;;;27.85;17.24;94691.03;5056870;28;20900;-75
2022/04/15 11:24:00;;;;;;;6.47;5.67;;;;;;;27.36;18.21;94689.13;5067288;28;20432;-76
2022/04/15 11:26:27;;;;;;;7.80;4.90;;;;;;;28.01;17.41;94694.19;5061621;28;20494;-76
2022/04/15 11:28:54;;;;;;;12.53;5.40;;;;;;;27.99;17.85;94690.22;5071591;28;20461;-76
2022/04/15 11:31:31;;;;;;;7.37;5.20;;;;;;;27.81;17.40;94684.69;5067605;28;20525;-76
2022/04/15 11:34:03;;;;;;;5.47;4.10;;;;;;;27.46;17.62;94689.69;5054987;28;20458;-76
2022/04/15 11:36:37;;;;;;;6.70;5.23;;;;;;;27.57;16.88;94689.50;5068266;28;20443;-76
2022/04/15 11:39:05;;;;;;;6.80;4.60;;;;;;;27.59;16.80;94682.72;5065613;28;20475;-76